Time;durP1;ratioP1;P1;durP2;ratioP2;P2;SDS_P1;SDS_P2;PMS_P1;PMS_P2;Temp;Humidity;BMP_temperature;BMP_pressure;BME280_temperature;BME280_humidity;BME280_pressure;Samples;Min_cycle;Max_cycle;Signal;HPM_P1;HPM_P2
2022/10/07 00:01:34;;;;;;;2.75;2.35;;;;;;;17.90;61.87;102446.75;5070683;28;20489;-77
2022/10/07 00:04:00;;;;;;;2.92;2.47;;;;;;;17.92;61.84;102441.53;5069417;28;20028;-77
2022/10/07 00:06:26;;;;;;;2.30;2.10;;;;;;;17.83;61.63;102420.84;5068072;28;20036;-79
2022/10/07 00:08:52;;;;;;;2.55;2.25;;;;;;;17.95;61.61;102440.78;5053009;28;20037;-79
2022/10/07 00:11:25;;;;;;;2.30;2.10;;;;;;;17.97;61.97;102436.47;5070555;28;20031;-79
2022/10/07 00:13:55;;;;;;;2.60;2.13;;;;;;;17.97;61.64;102442.69;5058725;28;20036;-77
2022/10/07 00:16:25;;;;;;;2.22;2.03;;;;;;;17.89;61.86;102434.38;5070688;28;20085;-79
2022/10/07 00:18:52;;;;;;;4.97;2.42;;;;;;;17.92;61.78;102435.34;5069734;28;20036;-79
2022/10/07 00:21:18;;;;;;;2.92;2.45;;;;;;;17.86;61.58;102423.66;5038705;28;20028;-79
2022/10/07 00:23:45;;;;;;;2.35;2.15;;;;;;;17.87;61.52;102416.63;5043304;28;20486;-79
2022/10/07 00:26:13;;;;;;;3.00;2.28;;;;;;;17.88;61.72;102421.97;5050442;28;20032;-79
2022/10/07 00:28:39;;;;;;;2.45;2.25;;;;;;;17.90;61.58;102428.22;5063041;28;20035;-79
2022/10/07 00:31:11;;;;;;;3.22;2.10;;;;;;;17.84;61.82;102429.66;5056588;28;20100;-79
2022/10/07 00:33:38;;;;;;;2.63;2.30;;;;;;;17.85;61.79;102427.09;5050524;28;20111;-80
2022/10/07 00:36:10;;;;;;;3.72;2.45;;;;;;;17.90;61.70;102424.69;5069919;28;20639;-79
2022/10/07 00:38:36;;;;;;;3.03;2.22;;;;;;;17.87;61.75;102429.84;5065201;28;20488;-79
2022/10/07 00:41:02;;;;;;;2.47;2.28;;;;;;;17.90;61.47;102425.59;5070597;28;20029;-79
2022/10/07 00:43:30;;;;;;;2.65;2.03;;;;;;;17.86;61.60;102420.06;5072306;28;20036;-79
2022/10/07 00:46:07;;;;;;;2.50;2.30;;;;;;;17.84;61.60;102408.53;5060218;28;20038;-79
2022/10/07 00:48:33;;;;;;;2.45;2.22;;;;;;;17.86;61.63;102415.72;5055775;28;20024;-79
2022/10/07 00:50:59;;;;;;;;;;;;;;;17.89;61.61;102415.88;5056558;28;20028;-79
2022/10/07 00:53:27;;;;;;;3.25;2.40;;;;;;;17.83;61.63;102406.72;5071734;28;19920;-79
2022/10/07 00:55:56;;;;;;;2.13;1.92;;;;;;;17.83;61.51;102409.38;5074338;28;20032;-79
2022/10/07 00:58:22;;;;;;;3.15;2.22;;;;;;;17.81;61.56;102403.06;5071496;28;20032;-79
2022/10/07 01:00:48;;;;;;;2.40;2.20;;;;;;;17.88;61.50;102410.50;5060038;28;20101;-79
2022/10/07 01:03:14;;;;;;;3.85;2.17;;;;;;;17.88;61.15;102400.81;5071725;28;20405;-79
2022/10/07 01:05:40;;;;;;;2.25;2.05;;;;;;;17.85;61.51;102405.97;5053893;28;20036;-79
2022/10/07 01:08:05;;;;;;;2.55;2.30;;;;;;;17.84;61.29;102416.44;5073778;28;20032;-79
2022/10/07 01:10:40;;;;;;;2.80;2.35;;;;;;;17.85;61.37;102415.63;5073890;28;20028;-79
2022/10/07 01:13:18;;;;;;;3.50;2.30;;;;;;;17.86;61.29;102412.16;5072866;28;20032;-79
2022/10/07 01:16:02;;;;;;;3.70;2.50;;;;;;;17.85;61.46;102407.72;5056064;28;20024;-79
2022/10/07 01:18:35;;;;;;;3.33;2.33;;;;;;;17.84;61.44;102397.94;5062268;28;20444;-79
2022/10/07 01:21:04;;;;;;;3.97;2.45;;;;;;;17.90;61.12;102400.91;5055486;28;20028;-79
2022/10/07 01:24:05;;;;;;;2.50;2.25;;;;;;;17.93;61.23;102395.78;5072476;28;20072;-78
2022/10/07 01:26:43;;;;;;;3.50;2.40;;;;;;;17.78;61.56;102393.25;5041177;28;20429;-78
2022/10/07 01:29:13;;;;;;;3.83;2.65;;;;;;;17.84;61.25;102393.59;5060904;28;20040;-78
2022/10/07 01:31:46;;;;;;;2.75;2.50;;;;;;;17.78;61.49;102403.81;5053559;28;20107;-79
2022/10/07 01:34:13;;;;;;;2.53;2.33;;;;;;;17.77;61.58;102401.09;5072230;28;20048;-79
2022/10/07 01:36:40;;;;;;;2.95;2.15;;;;;;;17.84;61.28;102401.53;5068380;28;20464;-79
2022/10/07 01:39:11;;;;;;;3.35;2.13;;;;;;;17.75;61.53;102390.44;5061634;28;20038;-79
2022/10/07 01:41:38;;;;;;;2.80;2.40;;;;;;;17.76;61.45;102391.34;5065354;28;20032;-78
2022/10/07 01:44:03;;;;;;;;;;;;;;;17.83;61.54;102404.09;5061716;28;20020;-79
2022/10/07 01:46:29;;;;;;;2.97;2.30;;;;;;;17.71;61.60;102391.09;5072716;28;19908;-79
2022/10/07 01:48:56;;;;;;;4.05;2.20;;;;;;;17.74;61.79;102407.13;5073026;28;20048;-78
2022/10/07 01:51:23;;;;;;;3.00;2.00;;;;;;;17.77;61.53;102402.00;5071748;28;20098;-79
2022/10/07 01:54:26;;;;;;;3.00;2.50;;;;;;;17.83;61.38;102407.63;5064459;28;20024;-79
2022/10/07 01:57:08;;;;;;;2.42;1.98;;;;;;;17.69;61.68;102403.34;5043889;28;20024;-78
2022/10/07 01:59:54;;;;;;;2.63;2.30;;;;;;;17.75;61.48;102401.00;5041455;28;20098;-79
2022/10/07 02:02:27;;;;;;;2.80;2.30;;;;;;;17.77;61.54;102403.75;5068447;28;20161;-80
2022/10/07 02:05:27;;;;;;;2.58;2.17;;;;;;;17.76;61.42;102404.53;5040335;28;20032;-79
2022/10/07 02:07:57;;;;;;;3.15;2.30;;;;;;;17.76;61.49;102409.84;5047611;28;20036;-79
2022/10/07 02:10:29;;;;;;;2.55;2.25;;;;;;;17.83;61.34;102402.34;5053088;28;20024;-79
2022/10/07 02:13:03;;;;;;;3.15;2.50;;;;;;;17.73;61.66;102400.03;5053802;28;20038;-79
2022/10/07 02:15:41;;;;;;;3.88;2.17;;;;;;;17.74;61.54;102401.84;5053639;28;20020;-79
2022/10/07 02:18:09;;;;;;;3.00;2.50;;;;;;;17.70;61.70;102402.53;5071469;28;20070;-79
2022/10/07 02:20:37;;;;;;;3.05;2.45;;;;;;;17.71;61.42;102399.03;5052123;28;20411;-79
2022/10/07 02:23:04;;;;;;;3.38;2.50;;;;;;;17.70;61.53;102406.06;5053730;28;20031;-79
2022/10/07 02:25:34;;;;;;;2.72;2.42;;;;;;;17.72;61.63;102408.78;5071821;28;20390;-79
2022/10/07 02:28:04;;;;;;;3.00;2.60;;;;;;;17.72;61.45;102405.25;5052885;28;20512;-80
2022/10/07 02:30:31;;;;;;;3.55;2.53;;;;;;;17.73;61.65;102405.31;5039515;28;20614;-79
2022/10/07 02:33:02;;;;;;;2.80;2.50;;;;;;;17.75;61.34;102408.03;5066883;28;20036;-79
2022/10/07 02:36:01;;;;;;;3.17;2.40;;;;;;;17.70;61.59;102410.44;5052728;28;20044;-79
2022/10/07 02:38:28;;;;;;;3.30;2.45;;;;;;;17.73;61.51;102400.03;5061546;28;20489;-80
2022/10/07 02:41:00;;;;;;;3.00;2.67;;;;;;;17.72;61.40;102403.50;5070886;28;20021;-80
2022/10/07 02:43:39;;;;;;;3.80;2.30;;;;;;;17.68;61.57;102407.72;5070913;28;20024;-79
2022/10/07 02:46:06;;;;;;;4.25;3.03;;;;;;;17.68;61.66;102404.19;5058779;28;20048;-80
2022/10/07 02:48:40;;;;;;;3.42;2.22;;;;;;;17.71;61.55;102414.88;5064415;28;20491;-80
2022/10/07 02:51:11;;;;;;;2.70;2.50;;;;;;;17.78;61.31;102408.19;5051177;28;20020;-79
2022/10/07 02:53:38;;;;;;;5.47;2.80;;;;;;;17.79;60.95;102404.72;5053638;28;20029;-80
2022/10/07 02:56:04;;;;;;;4.70;2.60;;;;;;;17.70;61.27;102394.59;5054665;28;20745;-80
2022/10/07 02:58:30;;;;;;;;;;;;;;;17.72;61.27;102413.19;5056594;28;20460;-80
2022/10/07 03:00:58;;;;;;;2.88;2.40;;;;;;;17.61;61.46;102400.31;5061695;28;19966;-80
2022/10/07 03:03:24;;;;;;;3.90;2.70;;;;;;;17.66;61.68;102408.47;5070348;28;20028;-80
2022/10/07 03:05:51;;;;;;;3.65;2.40;;;;;;;17.45;61.76;102380.13;5052827;28;20040;-80
2022/10/07 03:08:20;;;;;;;3.38;2.70;;;;;;;17.64;61.50;102402.19;5051417;28;20029;-80
2022/10/07 03:10:45;;;;;;;3.35;2.55;;;;;;;17.74;61.45;102409.78;5052309;28;20051;-79
2022/10/07 03:13:11;;;;;;;2.75;2.35;;;;;;;17.70;61.42;102413.09;5070378;28;20503;-79
2022/10/07 03:15:37;;;;;;;3.13;2.20;;;;;;;17.75;61.27;102411.56;5070883;28;20474;-79
2022/10/07 03:18:03;;;;;;;3.80;2.78;;;;;;;17.72;61.28;102406.16;5069907;28;20032;-80
2022/10/07 03:20:31;;;;;;;3.03;2.42;;;;;;;17.45;61.58;102371.28;5052725;28;20478;-79
2022/10/07 03:22:58;;;;;;;2.90;2.58;;;;;;;17.68;61.35;102405.06;5069188;28;20032;-79
2022/10/07 03:25:25;;;;;;;2.90;2.60;;;;;;;17.72;61.45;102414.06;5070655;28;20017;-79
2022/10/07 03:27:53;;;;;;;2.72;2.40;;;;;;;17.64;61.48;102408.38;5070118;28;20244;-79
2022/10/07 03:30:21;;;;;;;2.97;2.65;;;;;;;17.69;61.44;102412.19;5069717;28;20040;-78
2022/10/07 03:32:48;;;;;;;3.70;2.63;;;;;;;17.61;61.54;102404.66;5061438;28;20099;-78
2022/10/07 03:35:14;;;;;;;3.17;2.65;;;;;;;17.68;61.42;102410.34;5056820;28;20565;-77
2022/10/07 03:37:40;;;;;;;2.80;2.60;;;;;;;17.75;61.32;102406.28;5069964;28;20067;-78
2022/10/07 03:40:06;;;;;;;3.85;2.70;;;;;;;17.69;61.23;102400.69;5070660;28;20056;-79
2022/10/07 03:42:32;;;;;;;5.05;2.95;;;;;;;17.67;61.22;102402.34;5062861;28;20043;-78
2022/10/07 03:44:58;;;;;;;2.50;2.28;;;;;;;17.57;61.25;102384.19;5070058;28;20024;-78
2022/10/07 03:47:23;;;;;;;4.07;2.30;;;;;;;17.59;61.55;102401.03;5064036;28;20449;-78
2022/10/07 03:49:49;;;;;;;3.75;2.63;;;;;;;17.68;61.24;102399.78;5070272;28;20048;-78
2022/10/07 03:52:14;;;;;;;4.05;2.55;;;;;;;17.64;61.37;102402.19;5070526;28;20036;-78
2022/10/07 03:54:42;;;;;;;3.55;2.53;;;;;;;17.52;61.51;102391.00;5070806;28;20058;-78
2022/10/07 03:57:48;;;;;;;4.07;2.78;;;;;;;17.69;61.05;102404.25;5064772;28;20033;-79
2022/10/07 03:59:53;;;;;;;3.05;2.65;;;;;;;17.61;61.11;102396.75;5069477;28;20035;-78
2022/10/07 04:02:22;;;;;;;3.03;2.67;;;;;;;17.55;61.17;102383.25;5065478;28;20025;-78
2022/10/07 04:04:51;;;;;;;3.35;2.60;;;;;;;17.65;61.25;102407.56;5056697;28;20051;-78
2022/10/07 04:07:18;;;;;;;4.20;2.83;;;;;;;17.61;60.92;102392.41;5071549;28;20082;-78
2022/10/07 04:09:44;;;;;;;4.20;2.97;;;;;;;17.63;61.08;102409.22;5070413;28;20106;-78
2022/10/07 04:12:09;;;;;;;4.68;2.60;;;;;;;17.60;61.27;102409.06;5071033;28;20063;-78
2022/10/07 04:14:35;;;;;;;3.70;2.63;;;;;;;17.59;61.24;102409.91;5057013;28;20102;-78
2022/10/07 04:17:01;;;;;;;3.80;2.60;;;;;;;17.59;61.29;102407.25;5057043;28;20025;-79
2022/10/07 04:19:27;;;;;;;3.65;2.78;;;;;;;17.53;61.27;102385.81;5074807;28;20531;-78
2022/10/07 04:21:52;;;;;;;3.67;2.38;;;;;;;17.62;61.18;102401.22;5074172;28;20021;-78
2022/10/07 04:24:18;;;;;;;3.05;2.50;;;;;;;17.57;61.13;102393.06;5064913;28;20037;-78
2022/10/07 04:26:43;;;;;;;3.00;2.67;;;;;;;17.64;61.09;102407.50;5070007;28;20107;-79
2022/10/07 04:29:09;;;;;;;3.42;2.47;;;;;;;17.53;61.44;102406.94;5074503;28;20048;-79
2022/10/07 04:31:34;;;;;;;2.38;2.17;;;;;;;17.54;61.42;102403.44;5068172;28;20062;-79
2022/10/07 04:34:00;;;;;;;4.18;3.00;;;;;;;17.53;61.27;102396.38;5067393;28;20154;-79
2022/10/07 04:36:26;;;;;;;5.82;3.20;;;;;;;17.62;61.17;102407.41;5068452;28;20024;-78
2022/10/07 04:38:51;;;;;;;4.63;2.90;;;;;;;17.56;61.38;102409.72;5069409;28;20033;-79
2022/10/07 04:41:17;;;;;;;4.13;2.90;;;;;;;17.42;60.97;102390.53;5072432;28;20545;-79
2022/10/07 04:43:42;;;;;;;4.53;2.75;;;;;;;17.45;61.17;102411.81;5070232;28;20111;-79
2022/10/07 04:46:12;;;;;;;5.20;3.10;;;;;;;17.54;61.30;102415.75;5064254;28;20115;-79
2022/10/07 04:48:38;;;;;;;4.68;3.10;;;;;;;17.47;61.09;102404.88;5060155;28;20043;-80
2022/10/07 04:51:06;;;;;;;5.22;2.95;;;;;;;17.33;61.18;102390.03;5041484;28;20016;-80
2022/10/07 04:53:32;;;;;;;3.45;2.50;;;;;;;17.39;61.54;102413.22;5063800;28;20406;-80
2022/10/07 04:55:59;;;;;;;6.63;3.17;;;;;;;17.34;61.60;102413.00;5055741;28;20378;-80
2022/10/07 04:58:25;;;;;;;4.55;2.90;;;;;;;17.41;61.49;102417.75;5072459;28;20111;-80
2022/10/07 05:00:52;;;;;;;3.90;2.65;;;;;;;17.45;61.40;102419.72;5063714;28;20027;-81
2022/10/07 05:03:20;;;;;;;4.43;2.90;;;;;;;17.43;61.50;102423.13;5073576;28;20024;-80
2022/10/07 05:05:48;;;;;;;5.07;2.92;;;;;;;17.55;61.18;102425.53;5065311;28;20048;-81
2022/10/07 05:08:15;;;;;;;8.00;3.00;;;;;;;17.45;61.54;102416.19;5055668;28;20478;-81
2022/10/07 05:10:41;;;;;;;6.30;2.97;;;;;;;17.39;61.64;102418.50;5067309;28;20025;-80
2022/10/07 05:13:12;;;;;;;3.97;2.70;;;;;;;17.36;61.54;102415.72;5056505;28;20547;-81
2022/10/07 05:16:01;;;;;;;4.43;2.75;;;;;;;17.43;61.49;102420.50;5067703;28;20028;-81
2022/10/07 05:18:28;;;;;;;3.58;3.00;;;;;;;17.37;61.63;102421.06;5055806;28;20119;-81
2022/10/07 05:20:54;;;;;;;5.57;3.28;;;;;;;17.38;61.62;102414.06;5039477;28;20024;-81
2022/10/07 05:23:21;;;;;;;5.32;2.85;;;;;;;17.37;61.66;102415.78;5049278;28;20077;-81
2022/10/07 05:25:56;;;;;;;5.63;3.05;;;;;;;17.25;61.60;102405.50;5040954;28;20028;-81
2022/10/07 05:28:22;;;;;;;6.32;3.30;;;;;;;17.30;61.47;102411.91;5053638;28;20489;-81
2022/10/07 05:30:48;;;;;;;5.53;2.70;;;;;;;17.39;61.61;102426.44;5054222;28;20051;-80
2022/10/07 05:33:13;;;;;;;3.42;2.70;;;;;;;17.36;61.39;102418.38;5062819;28;20036;-80
2022/10/07 05:35:45;;;;;;;7.15;2.70;;;;;;;17.35;61.60;102424.44;5051015;28;20060;-80
2022/10/07 05:38:11;;;;;;;5.22;2.75;;;;;;;17.28;61.59;102408.28;5071092;28;20405;-80
2022/10/07 05:40:36;;;;;;;9.23;3.58;;;;;;;17.35;61.61;102425.34;5069351;28;20119;-80
2022/10/07 05:43:02;;;;;;;5.95;2.92;;;;;;;17.39;61.68;102431.72;5070593;28;20088;-82
2022/10/07 05:45:30;;;;;;;9.88;2.72;;;;;;;17.35;61.58;102414.78;5066775;28;20039;-82
2022/10/07 05:47:57;;;;;;;5.82;2.90;;;;;;;17.35;61.47;102409.50;5066905;28;20021;-82
2022/10/07 05:50:22;;;;;;;5.53;2.83;;;;;;;17.36;61.45;102408.69;5064881;28;20107;-82
2022/10/07 05:52:48;;;;;;;6.65;3.10;;;;;;;17.31;61.71;102415.44;5058047;28;20104;-79
2022/10/07 05:55:15;;;;;;;7.13;2.95;;;;;;;17.40;61.83;102430.88;5068778;28;20033;-79
2022/10/07 05:57:41;;;;;;;5.35;3.00;;;;;;;17.47;61.56;102435.66;5070346;28;20024;-82
2022/10/07 06:00:07;;;;;;;3.60;2.42;;;;;;;17.37;61.79;102423.69;5068618;28;20703;-79
2022/10/07 06:02:33;;;;;;;5.00;2.90;;;;;;;17.40;61.73;102429.16;5049612;28;20485;-82
2022/10/07 06:04:59;;;;;;;5.28;2.70;;;;;;;17.47;61.64;102435.66;5068549;28;20028;-81
2022/10/07 06:07:25;;;;;;;4.88;2.75;;;;;;;17.37;61.68;102422.81;5067970;28;20055;-80
2022/10/07 06:18:52;;;;;;;5.40;2.60;;;;;;;16.86;61.90;102330.38;5069154;28;20525;-82
2022/10/07 06:21:30;;;;;;;3.42;2.45;;;;;;;16.88;61.94;102331.34;5029779;28;20033;-82
2022/10/07 06:24:32;;;;;;;4.53;2.63;;;;;;;17.45;62.09;102427.66;5055960;28;20024;-82
2022/10/07 06:26:59;;;;;;;4.18;2.63;;;;;;;17.17;62.01;102377.78;5060929;28;20116;-86
2022/10/07 06:29:25;;;;;;;4.03;2.55;;;;;;;16.88;61.68;102323.44;5049867;28;20029;-81
2022/10/07 06:31:54;;;;;;;3.33;2.50;;;;;;;17.22;61.99;102378.91;5050941;28;20113;-81
2022/10/07 06:34:30;;;;;;;5.07;2.70;;;;;;;17.09;61.90;102348.31;5034687;28;20039;-81
2022/10/07 06:36:59;;;;;;;;;;;;;;;17.52;61.98;102425.34;5045737;28;20032;-81
2022/10/07 06:39:25;;;;;;;4.50;2.60;;;;;;;17.15;62.02;102365.31;5044015;28;19913;-82
2022/10/07 06:41:56;;;;;;;5.15;2.88;;;;;;;17.45;62.21;102425.03;5069623;28;20044;-81
2022/10/07 06:44:21;;;;;;;2.70;2.50;;;;;;;17.08;62.18;102359.72;5046575;28;20109;-80
2022/10/07 06:46:50;;;;;;;3.42;2.50;;;;;;;17.24;62.31;102379.00;5071388;28;20111;-82
2022/10/07 06:49:19;;;;;;;3.97;2.40;;;;;;;16.83;62.34;102325.84;5042382;28;20070;-82
2022/10/07 06:51:45;;;;;;;4.30;2.55;;;;;;;17.00;62.44;102345.22;5070233;28;20409;-82
2022/10/07 06:54:21;;;;;;;4.18;2.58;;;;;;;16.97;62.39;102349.41;5052981;28;20050;-82
2022/10/07 06:56:54;;;;;;;4.00;2.50;;;;;;;17.00;62.49;102354.88;5066611;28;20031;-82
2022/10/07 06:59:23;;;;;;;3.97;2.80;;;;;;;17.47;62.46;102435.66;5038121;28;20477;-82
2022/10/07 07:01:49;;;;;;;2.70;2.17;;;;;;;17.10;62.40;102359.78;5037354;28;20078;-82
2022/10/07 07:04:15;;;;;;;;;;;;;;;17.55;62.15;102430.81;5040574;28;20039;-82
2022/10/07 07:06:45;;;;;;;6.07;2.40;;;;;;;16.86;62.45;102325.09;5036430;28;19916;-81
2022/10/07 07:09:14;;;;;;;2.40;2.17;;;;;;;16.93;62.35;102335.13;5051522;28;20024;-81
2022/10/07 07:11:43;;;;;;;4.28;2.75;;;;;;;17.08;62.31;102365.00;5052844;28;20103;-81
2022/10/07 07:14:12;;;;;;;3.05;2.35;;;;;;;17.43;62.64;102431.06;5049346;28;20107;-81
2022/10/07 07:16:42;;;;;;;3.22;2.10;;;;;;;16.92;62.40;102330.69;5028680;28;20567;-81
2022/10/07 07:19:14;;;;;;;3.20;2.47;;;;;;;17.57;62.34;102431.75;5052261;28;20051;-81
2022/10/07 07:21:40;;;;;;;2.75;2.45;;;;;;;17.06;62.13;102348.19;5051105;28;20028;-81
2022/10/07 07:24:09;;;;;;;4.78;2.58;;;;;;;17.16;62.36;102365.38;5050555;28;20563;-81
2022/10/07 07:26:36;;;;;;;3.90;2.75;;;;;;;17.11;62.86;102360.72;5033689;28;20468;-81
2022/10/07 07:29:04;;;;;;;5.13;2.60;;;;;;;16.98;63.26;102361.78;5034944;28;20401;-81
2022/10/07 07:31:36;;;;;;;4.85;2.92;;;;;;;17.44;63.27;102428.50;5031157;28;20081;-80
2022/10/07 07:34:06;;;;;;;5.35;2.70;;;;;;;16.75;63.18;102302.47;5035398;28;20506;-81
2022/10/07 07:36:35;;;;;;;4.68;2.88;;;;;;;17.19;63.65;102389.31;5022698;28;20140;-80
2022/10/07 07:39:05;;;;;;;2.97;2.63;;;;;;;16.74;63.76;102316.47;5034777;28;20029;-80
2022/10/07 07:41:37;;;;;;;5.43;2.58;;;;;;;16.75;63.52;102299.84;5028429;28;20103;-80
2022/10/07 07:44:05;;;;;;;3.20;2.90;;;;;;;17.27;63.43;102379.16;5029848;28;20032;-80
2022/10/07 07:46:49;;;;;;;2.25;2.05;;;;;;;16.89;63.19;102320.88;5042736;28;20434;-80
2022/10/07 07:49:19;;;;;;;2.97;2.35;;;;;;;16.79;63.33;102297.44;5033533;28;20425;-81
2022/10/07 07:51:58;;;;;;;3.70;2.92;;;;;;;17.47;64.13;102428.66;5059464;28;20016;-80
2022/10/07 07:54:26;;;;;;;4.70;2.60;;;;;;;17.47;63.76;102427.75;5045365;28;20459;-80
2022/10/07 07:56:56;;;;;;;4.45;2.60;;;;;;;17.33;63.58;102408.53;5037435;28;20029;-80
2022/10/07 07:59:23;;;;;;;4.50;2.60;;;;;;;16.97;63.62;102345.03;5052250;28;20045;-81
2022/10/07 08:01:48;;;;;;;3.72;2.70;;;;;;;17.06;63.45;102344.63;5053364;28;20021;-80
2022/10/07 08:04:15;;;;;;;3.85;2.45;;;;;;;17.36;63.18;102389.31;5049833;28;20405;-81
2022/10/07 08:06:42;;;;;;;3.47;2.42;;;;;;;17.18;63.83;102379.56;5037063;28;20033;-80
2022/10/07 08:09:08;;;;;;;3.00;2.60;;;;;;;17.03;63.30;102347.09;5054588;28;20083;-80
2022/10/07 08:11:37;;;;;;;2.95;2.35;;;;;;;17.08;63.11;102325.41;5036190;28;20057;-79
2022/10/07 08:14:06;;;;;;;3.03;2.50;;;;;;;16.92;63.60;102321.88;5033540;28;20033;-80
2022/10/07 08:16:33;;;;;;;3.03;2.53;;;;;;;17.15;63.13;102339.84;5036112;28;20039;-80
2022/10/07 08:19:06;;;;;;;2.70;2.50;;;;;;;16.98;63.34;102325.75;5052906;28;20029;-80
2022/10/07 08:21:33;;;;;;;3.05;2.60;;;;;;;17.17;63.14;102356.66;5040289;28;20045;-81
2022/10/07 08:24:03;;;;;;;2.47;2.25;;;;;;;17.55;62.98;102410.56;5047964;28;20025;-81
2022/10/07 08:26:31;;;;;;;4.47;2.90;;;;;;;17.56;63.12;102416.75;5049498;28;20029;-80
2022/10/07 08:28:58;;;;;;;3.17;2.50;;;;;;;16.92;63.31;102306.94;5043252;28;20025;-80
2022/10/07 08:31:26;;;;;;;3.53;2.67;;;;;;;17.30;63.05;102374.94;5041574;28;20116;-80
2022/10/07 08:34:23;;;;;;;4.43;2.55;;;;;;;17.52;63.23;102406.84;5032203;28;20091;-80
2022/10/07 08:36:52;;;;;;;3.83;2.75;;;;;;;17.00;63.60;102344.31;5048481;28;20021;-80
2022/10/07 08:39:23;;;;;;;3.15;2.53;;;;;;;17.10;63.34;102338.66;5058421;28;20028;-82
2022/10/07 08:42:11;;;;;;;3.65;2.85;;;;;;;17.35;63.52;102383.09;5033517;28;20380;-81
2022/10/07 08:44:43;;;;;;;3.45;2.50;;;;;;;17.29;63.13;102356.38;5052911;28;20101;-81
2022/10/07 08:47:19;;;;;;;3.28;2.53;;;;;;;16.90;63.80;102313.88;5029717;28;20034;-82
2022/10/07 08:50:03;;;;;;;5.40;2.60;;;;;;;17.47;63.42;102401.34;5057947;28;20052;-80
2022/10/07 08:52:40;;;;;;;6.25;2.75;;;;;;;17.62;62.84;102396.84;5048456;28;20028;-81
2022/10/07 08:55:20;;;;;;;3.88;2.72;;;;;;;17.57;63.39;102400.06;5063542;28;20525;-82
2022/10/07 08:58:14;;;;;;;4.20;2.80;;;;;;;17.25;63.65;102351.75;5058322;28;20410;-80
2022/10/07 09:00:46;;;;;;;2.58;2.38;;;;;;;17.54;63.37;102389.34;5021550;28;20057;-80
2022/10/07 09:03:29;;;;;;;2.97;2.42;;;;;;;17.33;63.86;102379.47;5051636;28;20115;-80
2022/10/07 09:05:59;;;;;;;6.05;2.42;;;;;;;17.26;64.22;102359.75;5052046;28;20039;-81
2022/10/07 09:08:29;;;;;;;3.88;2.85;;;;;;;17.29;64.09;102367.88;5035461;28;20437;-80
2022/10/07 09:10:58;;;;;;;3.10;2.67;;;;;;;17.35;63.95;102374.28;5044039;28;20086;-80
2022/10/07 09:13:30;;;;;;;3.38;2.50;;;;;;;17.35;63.78;102371.63;5044564;28;20029;-81
2022/10/07 09:16:13;;;;;;;4.32;2.60;;;;;;;17.48;63.54;102377.66;5038561;28;20449;-80
2022/10/07 09:18:40;;;;;;;2.90;2.50;;;;;;;17.65;63.11;102375.88;5046961;28;20083;-81
2022/10/07 09:21:31;;;;;;;2.72;2.50;;;;;;;17.79;62.54;102371.25;5036702;28;20033;-81
2022/10/07 09:24:10;;;;;;;2.88;2.58;;;;;;;17.82;62.40;102362.56;5041773;28;20029;-81
2022/10/07 09:26:35;;;;;;;2.65;2.45;;;;;;;17.60;62.71;102353.56;5050648;28;20067;-81
2022/10/07 09:29:01;;;;;;;3.00;2.45;;;;;;;17.59;62.93;102365.00;5044967;28;20468;-81
2022/10/07 09:31:27;;;;;;;2.80;2.60;;;;;;;17.75;62.58;102360.47;5048385;28;20060;-80
2022/10/07 09:33:53;;;;;;;;;;;;;;;17.65;62.96;102361.72;5046913;28;20060;-80
2022/10/07 09:36:19;;;;;;;3.17;2.20;;;;;;;17.70;62.69;102358.50;5047108;28;19970;-80
2022/10/07 09:38:49;;;;;;;3.03;2.40;;;;;;;17.60;63.03;102364.16;5060363;28;20024;-81
2022/10/07 09:41:26;;;;;;;3.90;2.38;;;;;;;17.49;63.10;102337.19;5052464;28;20097;-81
2022/10/07 09:44:00;;;;;;;2.08;1.95;;;;;;;17.49;63.20;102334.53;5043813;28;20037;-81
2022/10/07 09:46:50;;;;;;;4.10;2.65;;;;;;;17.50;62.85;102332.81;5050065;28;20112;-81
2022/10/07 09:49:28;;;;;;;3.33;2.30;;;;;;;17.70;62.90;102352.31;5046822;28;20032;-80
2022/10/07 09:52:10;;;;;;;3.58;2.22;;;;;;;17.65;63.09;102356.44;5056307;28;20104;-80
2022/10/07 09:54:35;;;;;;;3.97;2.40;;;;;;;17.44;63.18;102320.22;5059985;28;20534;-80
2022/10/07 09:57:03;;;;;;;3.53;2.25;;;;;;;17.70;62.88;102341.75;5057305;28;20052;-80
2022/10/07 09:59:30;;;;;;;2.60;2.40;;;;;;;17.64;63.10;102349.38;5043454;28;20036;-80
2022/10/07 10:01:58;;;;;;;3.53;2.30;;;;;;;17.55;63.06;102341.88;5043684;28;20025;-80
2022/10/07 10:04:51;;;;;;;4.57;2.45;;;;;;;17.74;62.28;102334.84;5048300;28;20403;-82
2022/10/07 10:07:28;;;;;;;5.00;1.95;;;;;;;18.02;61.18;102339.81;5035703;28;20423;-81
2022/10/07 10:09:54;;;;;;;;;;;;;;;18.09;61.38;102332.25;5051074;28;20029;-82
2022/10/07 10:12:21;;;;;;;8.37;2.43;;;;;;;18.20;61.18;102327.50;5043523;28;19919;-82
2022/10/07 10:14:48;;;;;;;3.75;1.85;;;;;;;17.97;61.67;102307.88;5041244;28;20033;-82
2022/10/07 10:17:33;;;;;;;4.97;2.30;;;;;;;17.94;61.92;102306.81;5042965;28;20687;-82
2022/10/07 10:20:28;;;;;;;3.08;2.08;;;;;;;17.87;62.54;102308.25;5033316;28;20039;-82
2022/10/07 10:22:54;;;;;;;4.22;2.10;;;;;;;17.75;62.85;102297.94;5044599;28;20029;-83
2022/10/07 10:28:55;;;;;;;3.10;2.05;;;;;;;17.86;62.98;102298.50;5034645;28;20414;-82
2022/10/07 10:31:52;;;;;;;3.45;1.80;;;;;;;17.81;62.79;102298.25;5042687;28;20474;-82
2022/10/07 10:34:30;;;;;;;3.17;1.98;;;;;;;17.64;62.80;102259.53;5047679;28;20040;-83
2022/10/07 10:37:39;;;;;;;3.85;1.90;;;;;;;17.81;62.57;102297.34;5063485;28;20406;-83
2022/10/07 10:40:17;;;;;;;2.95;1.85;;;;;;;17.97;62.43;102292.03;5012639;28;20037;-83
2022/10/07 10:42:47;;;;;;;6.50;1.90;;;;;;;17.90;62.13;102281.97;5059674;28;20036;-83
2022/10/07 10:45:24;;;;;;;4.10;1.95;;;;;;;17.83;62.52;102280.78;5065303;28;20039;-83
2022/10/07 10:48:17;;;;;;;2.70;1.80;;;;;;;17.81;62.09;102277.13;5068111;28;20028;-83
2022/10/07 10:51:30;;;;;;;2.75;2.08;;;;;;;17.81;61.71;102281.50;5060603;28;20028;-83
2022/10/07 10:54:20;;;;;;;2.80;1.67;;;;;;;17.92;61.74;102274.13;5042757;28;20060;-82
2022/10/07 10:56:52;;;;;;;2.55;1.90;;;;;;;18.10;61.10;102272.38;5061420;28;20019;-82
2022/10/07 10:59:42;;;;;;;3.10;1.92;;;;;;;17.94;61.11;102269.81;5047982;28;20491;-82
2022/10/07 11:02:21;;;;;;;3.63;1.95;;;;;;;18.02;61.42;102265.81;5054007;28;20491;-82
2022/10/07 11:05:00;;;;;;;1.98;1.67;;;;;;;17.99;61.54;102276.22;5051962;28;20025;-82
2022/10/07 11:07:36;;;;;;;5.25;1.90;;;;;;;17.79;61.50;102236.50;5054284;28;20410;-82
2022/10/07 11:10:06;;;;;;;3.10;1.88;;;;;;;18.04;61.31;102267.69;5046967;28;20029;-82
2022/10/07 11:12:39;;;;;;;1.98;1.70;;;;;;;17.88;61.35;102229.03;5064882;28;20035;-82
2022/10/07 11:15:18;;;;;;;4.50;1.70;;;;;;;18.05;61.75;102264.19;5060776;28;20086;-82
2022/10/07 11:17:48;;;;;;;3.47;1.80;;;;;;;18.04;61.60;102249.19;5061837;28;20048;-82
2022/10/07 11:20:46;;;;;;;2.00;1.77;;;;;;;17.85;62.56;102252.69;5060200;28;20047;-82
2022/10/07 11:23:27;;;;;;;2.38;1.80;;;;;;;17.94;62.30;102253.97;5050043;28;20043;-82
2022/10/07 11:25:56;;;;;;;3.05;1.60;;;;;;;17.96;62.17;102249.66;5058070;28;20414;-82
2022/10/07 11:28:25;;;;;;;2.30;2.10;;;;;;;17.86;62.08;102208.66;5060566;28;20025;-81
2022/10/07 11:31:03;;;;;;;1.88;1.70;;;;;;;18.04;61.62;102217.44;5054593;28;20024;-81
2022/10/07 11:33:36;;;;;;;3.20;1.63;;;;;;;18.20;61.34;102227.03;5053448;28;20017;-82
2022/10/07 11:36:13;;;;;;;3.17;1.70;;;;;;;18.11;61.54;102223.94;5059182;28;20049;-82
2022/10/07 11:38:40;;;;;;;4.70;2.22;;;;;;;18.21;61.47;102218.22;5051342;28;20028;-83
2022/10/07 11:41:38;;;;;;;3.38;1.90;;;;;;;18.15;61.65;102217.06;5064242;28;20020;-81
2022/10/07 11:44:08;;;;;;;3.13;1.77;;;;;;;18.06;61.61;102204.31;5035714;28;20041;-82
2022/10/07 11:46:43;;;;;;;5.78;2.17;;;;;;;18.17;61.59;102215.38;5047638;28;20132;-82
2022/10/07 11:49:29;;;;;;;2.75;1.75;;;;;;;18.02;61.45;102192.69;5039729;28;20030;-82
2022/10/07 11:52:02;;;;;;;2.88;2.05;;;;;;;18.23;61.47;102219.22;5039517;28;20029;-82
2022/10/07 11:54:30;;;;;;;4.30;2.10;;;;;;;18.13;61.25;102176.41;5037042;28;20040;-82
2022/10/07 11:56:59;;;;;;;6.15;2.10;;;;;;;18.24;61.07;102177.78;5033432;28;20061;-83
2022/10/07 11:59:46;;;;;;;10.55;2.13;;;;;;;18.37;60.96;102192.47;5033605;28;20025;-82